createdAt,value
2018-09-10T00:02:05.660Z,15.50
2018-09-10T00:04:32.891Z,15.50
2018-09-10T00:07:00.104Z,15.40
2018-09-10T00:09:27.327Z,15.40
2018-09-10T00:11:54.544Z,15.40
2018-09-10T00:14:21.761Z,15.40
2018-09-10T00:16:49.166Z,15.40
2018-09-10T00:19:16.407Z,15.30
2018-09-10T00:21:43.760Z,15.40
2018-09-10T00:24:10.992Z,15.40
2018-09-10T00:26:38.237Z,15.30
2018-09-10T00:29:05.456Z,15.20
2018-09-10T00:31:32.685Z,15.10
2018-09-10T00:34:00.408Z,14.90
2018-09-10T00:36:27.630Z,14.70
2018-09-10T00:38:54.851Z,14.60
2018-09-10T00:41:22.077Z,14.60
2018-09-10T00:43:49.304Z,14.50
2018-09-10T00:46:16.536Z,14.50
2018-09-10T00:48:43.745Z,14.50
2018-09-10T00:51:10.988Z,14.40
2018-09-10T00:53:38.208Z,14.40
2018-09-10T00:56:05.435Z,14.40
2018-09-10T00:58:32.653Z,14.40
2018-09-10T01:00:59.883Z,14.30
2018-09-10T01:03:27.105Z,14.30
2018-09-10T01:05:54.327Z,14.20
2018-09-10T01:08:21.565Z,14.10
2018-09-10T01:10:48.792Z,14.10
2018-09-10T01:13:16.003Z,14.00
2018-09-10T01:15:43.416Z,14.00
2018-09-10T01:18:10.901Z,14.10
2018-09-10T01:20:38.123Z,14.10
2018-09-10T01:23:05.363Z,14.10
2018-09-10T01:25:32.613Z,14.10
2018-09-10T01:27:59.839Z,14.10
2018-09-10T01:30:27.075Z,14.20
2018-09-10T01:32:54.300Z,14.30
2018-09-10T01:35:21.549Z,14.20
2018-09-10T01:37:48.768Z,14.20
2018-09-10T01:40:15.960Z,14.10
2018-09-10T01:42:43.152Z,13.90
2018-09-10T01:45:10.380Z,13.80
2018-09-10T01:47:37.585Z,13.70
2018-09-10T01:50:04.808Z,13.60
2018-09-10T01:52:32.005Z,13.50
2018-09-10T01:54:59.188Z,13.50
2018-09-10T01:57:26.393Z,13.60
2018-09-10T01:59:53.582Z,13.50
2018-09-10T02:02:20.777Z,13.40
2018-09-10T02:04:48.003Z,13.30
2018-09-10T02:07:15.217Z,13.30
2018-09-10T02:09:42.404Z,13.20
2018-09-10T02:12:15.319Z,13.10
2018-09-10T02:14:42.516Z,13.00
2018-09-10T02:17:09.721Z,13.00
2018-09-10T02:19:36.884Z,12.90
2018-09-10T02:22:04.092Z,12.90
2018-09-10T02:24:31.279Z,12.90
2018-09-10T02:26:58.491Z,13.00
2018-09-10T02:29:25.665Z,13.10
2018-09-10T02:31:52.880Z,13.30
2018-09-10T02:34:20.080Z,13.60
2018-09-10T02:36:47.268Z,13.90
2018-09-10T02:39:14.463Z,14.00
2018-09-10T02:41:42.789Z,14.20
2018-09-10T02:44:10.781Z,14.30
2018-09-10T02:46:38.148Z,14.30
2018-09-10T02:49:05.417Z,14.40
2018-09-10T02:51:32.597Z,14.30
2018-09-10T02:53:59.797Z,14.20
2018-09-10T02:56:26.991Z,14.00
2018-09-10T02:58:54.184Z,13.80
2018-09-10T03:01:21.364Z,13.60
2018-09-10T03:03:48.567Z,13.40
2018-09-10T03:06:15.747Z,13.30
2018-09-10T03:08:42.936Z,13.20
2018-09-10T03:11:10.124Z,13.10
2018-09-10T03:13:37.303Z,13.00
2018-09-10T03:16:04.496Z,13.00
2018-09-10T03:18:31.691Z,12.90
2018-09-10T03:20:58.868Z,12.80
2018-09-10T03:23:26.059Z,12.80
2018-09-10T03:25:53.236Z,12.70
2018-09-10T03:28:20.416Z,12.60
2018-09-10T03:30:47.648Z,12.50
2018-09-10T03:33:14.871Z,12.50
2018-09-10T03:35:42.068Z,12.50
2018-09-10T03:38:12.134Z,12.50
2018-09-10T03:40:39.345Z,12.40
2018-09-10T03:43:06.576Z,12.40
2018-09-10T03:45:33.761Z,12.40
2018-09-10T03:48:00.940Z,12.30
2018-09-10T03:50:28.136Z,12.30
2018-09-10T03:52:55.321Z,12.30
2018-09-10T03:55:22.516Z,12.20
2018-09-10T03:57:49.696Z,12.20
2018-09-10T04:00:17.092Z,12.20
2018-09-10T04:02:44.285Z,12.40
2018-09-10T04:05:11.488Z,12.50
2018-09-10T04:07:38.660Z,12.50
2018-09-10T04:10:05.899Z,12.60
2018-09-10T04:12:33.072Z,12.80
2018-09-10T04:15:00.296Z,13.00
2018-09-10T04:17:27.480Z,13.10
2018-09-10T04:20:11.343Z,13.10
2018-09-10T04:22:39.996Z,13.10
2018-09-10T04:25:07.228Z,13.20
2018-09-10T04:27:35.247Z,13.10
2018-09-10T04:30:02.495Z,13.00
2018-09-10T04:32:29.679Z,12.90
2018-09-10T04:34:56.864Z,12.80
2018-09-10T04:37:24.040Z,12.60
2018-09-10T04:39:51.216Z,12.50
2018-09-10T04:42:18.442Z,12.50
2018-09-10T04:44:45.537Z,12.40
2018-09-10T04:47:12.708Z,12.30
2018-09-10T04:49:39.921Z,12.20
2018-09-10T04:52:07.032Z,12.20
2018-09-10T04:54:34.208Z,12.20
2018-09-10T04:57:01.401Z,12.20
2018-09-10T04:59:28.573Z,12.30
2018-09-10T05:01:55.736Z,12.40
2018-09-10T05:04:22.916Z,12.50
2018-09-10T05:06:50.163Z,12.70
2018-09-10T05:09:17.321Z,12.80
2018-09-10T05:11:44.484Z,12.80
2018-09-10T05:14:11.644Z,12.90
2018-09-10T05:16:38.809Z,13.00
2018-09-10T05:19:05.983Z,13.00
2018-09-10T05:21:33.156Z,12.90
2018-09-10T05:24:00.326Z,12.90
2018-09-10T05:26:27.488Z,12.90
2018-09-10T05:28:54.642Z,13.00
2018-09-10T05:31:21.812Z,13.00
2018-09-10T05:33:48.982Z,13.10
2018-09-10T05:36:16.171Z,13.10
2018-09-10T05:38:43.344Z,13.20
2018-09-10T05:41:10.532Z,13.20
2018-09-10T05:43:37.719Z,13.30
2018-09-10T05:46:04.913Z,13.40
2018-09-10T05:48:32.124Z,13.50
2018-09-10T05:50:59.304Z,13.50
2018-09-10T05:53:26.493Z,13.60
2018-09-10T05:55:53.823Z,13.70
2018-09-10T05:58:21.003Z,13.70
2018-09-10T06:00:48.216Z,13.80
2018-09-10T06:03:15.404Z,13.90
2018-09-10T06:05:42.585Z,14.00
2018-09-10T06:08:09.788Z,14.10
2018-09-10T06:10:37.005Z,14.40
2018-09-10T06:13:04.351Z,15.40
2018-09-10T06:15:31.560Z,17.10
2018-09-10T06:17:58.776Z,18.40
2018-09-10T06:20:25.967Z,18.20
2018-09-10T06:22:53.161Z,18.00
2018-09-10T06:25:20.368Z,17.70
2018-09-10T06:27:47.558Z,18.50
2018-09-10T06:30:14.921Z,19.70
2018-09-10T06:32:42.089Z,20.70
2018-09-10T06:35:09.289Z,21.70
2018-09-10T06:37:36.516Z,22.60
2018-09-10T06:40:03.744Z,23.00
2018-09-10T06:42:30.938Z,23.70
2018-09-10T06:44:58.127Z,24.20
2018-09-10T06:47:25.313Z,24.80
2018-09-10T06:49:52.845Z,24.80
2018-09-10T06:52:20.037Z,25.10
2018-09-10T06:54:47.231Z,25.70
2018-09-10T06:57:14.429Z,25.70
2018-09-10T06:59:41.629Z,26.10
2018-09-10T07:02:08.820Z,26.60
2018-09-10T07:04:36.020Z,26.70
2018-09-10T07:07:03.355Z,26.70
2018-09-10T07:09:30.546Z,26.60
2018-09-10T07:11:57.741Z,26.30
2018-09-10T07:14:24.956Z,26.60
2018-09-10T07:16:52.135Z,26.70
2018-09-10T07:19:19.359Z,26.80
2018-09-10T07:21:46.553Z,26.20
2018-09-10T07:24:13.804Z,26.20
2018-09-10T07:26:40.992Z,26.30
2018-09-10T07:29:08.188Z,26.60
2018-09-10T07:31:35.370Z,27.00
2018-09-10T07:34:02.567Z,27.20
2018-09-10T07:36:29.753Z,27.70
2018-09-10T07:38:56.944Z,27.50
2018-09-10T07:41:24.136Z,27.20
2018-09-10T07:43:51.431Z,27.30
2018-09-10T07:46:18.749Z,26.90
2018-09-10T07:48:45.948Z,26.80
2018-09-10T07:51:13.137Z,27.30
2018-09-10T07:53:40.323Z,27.50
2018-09-10T07:56:07.511Z,27.60
2018-09-10T07:58:35.028Z,28.00
2018-09-10T08:01:02.224Z,28.30
2018-09-10T08:03:29.412Z,28.20
2018-09-10T08:05:56.599Z,28.20
2018-09-10T08:08:23.780Z,29.30
2018-09-10T08:10:50.976Z,29.70
2018-09-10T08:13:18.159Z,30.30
2018-09-10T08:15:45.351Z,30.60
2018-09-10T08:18:12.556Z,30.20
2018-09-10T08:20:39.736Z,30.40
2018-09-10T08:23:06.945Z,30.60
2018-09-10T08:25:34.143Z,30.50
2018-09-10T08:28:01.363Z,30.60
2018-09-10T08:30:28.614Z,31.10
2018-09-10T08:32:55.760Z,31.60
2018-09-10T08:35:22.996Z,31.30
2018-09-10T08:37:50.218Z,31.00
2018-09-10T08:40:17.472Z,30.80
2018-09-10T08:42:44.702Z,30.90
2018-09-10T08:45:11.912Z,30.00
2018-09-10T08:47:39.082Z,30.30
2018-09-10T08:50:07.335Z,30.60
2018-09-10T08:52:34.552Z,31.40
2018-09-10T08:55:02.061Z,31.80
2018-09-10T08:57:29.024Z,31.30
2018-09-10T08:59:56.196Z,30.90
2018-09-10T09:02:23.420Z,31.60
2018-09-10T09:04:50.597Z,31.60
2018-09-10T09:07:17.839Z,31.50
2018-09-10T09:09:45.031Z,31.90
2018-09-10T09:12:12.244Z,32.30
2018-09-10T09:14:39.436Z,32.30
2018-09-10T09:17:06.631Z,31.90
2018-09-10T09:19:33.856Z,31.10
2018-09-10T09:22:01.056Z,30.90
2018-09-10T09:24:28.243Z,31.60
2018-09-10T09:26:55.424Z,31.60
2018-09-10T09:29:22.600Z,32.00
2018-09-10T09:31:49.797Z,32.30
2018-09-10T09:34:16.975Z,32.60
2018-09-10T09:36:49.869Z,33.20
2018-09-10T09:39:22.797Z,33.00
2018-09-10T09:42:57.559Z,32.50
2018-09-10T09:45:30.500Z,33.40
2018-09-10T09:47:57.691Z,34.10
2018-09-10T09:50:24.879Z,34.20
2018-09-10T09:52:52.061Z,33.60
2018-09-10T09:55:19.248Z,33.30
2018-09-10T09:57:46.451Z,32.10
2018-09-10T10:00:14.647Z,31.30
2018-09-10T10:02:47.672Z,31.70
2018-09-10T10:05:14.853Z,32.60
2018-09-10T10:07:42.046Z,33.30
2018-09-10T10:10:09.238Z,33.20
2018-09-10T10:12:36.425Z,32.70
2018-09-10T10:15:03.655Z,32.20
2018-09-10T10:17:30.836Z,32.00
2018-09-10T10:19:58.012Z,32.10
2018-09-10T10:22:25.471Z,32.10
2018-09-10T10:24:52.791Z,32.20
2018-09-10T10:27:20.041Z,32.10
2018-09-10T10:29:47.224Z,32.60
2018-09-10T10:32:14.431Z,32.40
2018-09-10T10:34:41.609Z,31.20
2018-09-10T10:37:08.787Z,30.40
2018-09-10T10:39:35.948Z,30.20
2018-09-10T10:42:03.111Z,30.60
2018-09-10T10:44:30.311Z,30.60
2018-09-10T10:46:57.463Z,31.00
2018-09-10T10:49:24.627Z,31.50
2018-09-10T10:51:51.835Z,31.20
2018-09-10T10:54:19.004Z,31.40
2018-09-10T10:56:46.201Z,31.20
2018-09-10T10:59:13.364Z,31.50
2018-09-10T11:01:40.520Z,32.10
2018-09-10T11:04:07.780Z,32.00
2018-09-10T11:06:34.951Z,31.80
2018-09-10T11:09:02.192Z,31.40
2018-09-10T11:11:29.405Z,31.50
2018-09-10T11:13:56.583Z,31.30
2018-09-10T11:16:23.744Z,31.50
2018-09-10T11:18:50.920Z,31.40
2018-09-10T11:21:18.109Z,31.70
2018-09-10T11:23:45.280Z,31.20
2018-09-10T11:26:12.436Z,31.00
2018-09-10T11:28:39.609Z,31.10
2018-09-10T11:31:07.136Z,30.40
2018-09-10T11:33:34.300Z,29.80
2018-09-10T11:36:01.462Z,29.60
2018-09-10T11:38:28.664Z,29.30
2018-09-10T11:40:55.828Z,29.10
2018-09-10T11:43:23.019Z,29.50
2018-09-10T11:45:50.443Z,29.80
2018-09-10T11:48:17.596Z,30.20
2018-09-10T11:50:44.764Z,30.60
2018-09-10T11:53:11.958Z,30.00
2018-09-10T11:55:39.139Z,29.80
2018-09-10T11:58:06.308Z,29.50
2018-09-10T12:00:33.607Z,29.50
2018-09-10T12:03:00.777Z,29.70
2018-09-10T12:05:27.948Z,30.20
2018-09-10T12:07:55.112Z,30.80
2018-09-10T12:10:22.286Z,30.70
2018-09-10T12:12:49.474Z,30.40
2018-09-10T12:15:16.795Z,30.70
2018-09-10T12:17:44.003Z,30.60
2018-09-10T12:20:11.191Z,30.50
2018-09-10T12:22:38.377Z,30.10
2018-09-10T12:25:05.665Z,30.10
2018-09-10T12:27:32.864Z,30.50
2018-09-10T12:30:00.151Z,30.70
2018-09-10T12:32:27.371Z,31.00
2018-09-10T12:34:54.493Z,30.70
2018-09-10T12:37:21.691Z,30.70
2018-09-10T12:39:48.952Z,30.30
2018-09-10T12:42:16.084Z,30.60
2018-09-10T12:44:43.260Z,30.80
2018-09-10T12:47:10.457Z,31.50
2018-09-10T12:49:37.665Z,31.60
2018-09-10T12:52:04.907Z,31.20
2018-09-10T12:54:32.106Z,31.30
2018-09-10T12:56:59.301Z,31.60
2018-09-10T12:59:26.536Z,31.50
2018-09-10T13:01:53.731Z,31.20
2018-09-10T13:04:20.956Z,31.80
2018-09-10T13:06:48.142Z,32.10
2018-09-10T13:09:15.333Z,31.90
2018-09-10T13:11:42.611Z,31.60
2018-09-10T13:14:09.801Z,31.80
2018-09-10T13:16:37.000Z,31.60
2018-09-10T13:19:04.312Z,31.60
2018-09-10T13:21:31.516Z,32.00
2018-09-10T13:23:58.703Z,32.30
2018-09-10T13:26:25.900Z,32.00
2018-09-10T13:28:53.208Z,31.70
2018-09-10T13:31:20.401Z,32.00
2018-09-10T13:33:47.584Z,32.20
2018-09-10T13:36:14.792Z,32.70
2018-09-10T13:38:41.951Z,33.20
2018-09-10T13:41:09.120Z,32.80
2018-09-10T13:43:36.324Z,32.20
2018-09-10T13:46:03.595Z,31.40
2018-09-10T13:48:30.776Z,31.20
2018-09-10T13:50:57.943Z,31.30
2018-09-10T13:53:25.209Z,31.50
2018-09-10T13:55:52.387Z,31.50
2018-09-10T13:58:19.600Z,31.20
2018-09-10T14:00:46.858Z,31.20
2018-09-10T14:03:14.033Z,31.40
2018-09-10T14:05:41.208Z,31.30
2018-09-10T14:08:08.367Z,31.40
2018-09-10T14:10:35.663Z,32.00
2018-09-10T14:13:02.803Z,32.80
2018-09-10T14:15:30.056Z,32.80
2018-09-10T14:17:57.450Z,32.70
2018-09-10T14:20:24.607Z,32.10
2018-09-10T14:22:51.949Z,32.00
2018-09-10T14:25:19.167Z,31.50
2018-09-10T14:27:46.472Z,31.10
2018-09-10T14:30:13.693Z,30.30
2018-09-10T14:32:40.865Z,29.30
2018-09-10T14:35:08.032Z,28.80
2018-09-10T14:37:35.420Z,28.70
2018-09-10T14:40:02.608Z,28.70
2018-09-10T14:42:29.776Z,28.60
2018-09-10T14:44:56.949Z,28.50
2018-09-10T14:47:24.119Z,28.60
2018-09-10T14:49:51.544Z,28.90
2018-09-10T14:52:18.725Z,29.30
2018-09-10T14:54:45.896Z,29.70
2018-09-10T14:57:13.077Z,30.10
2018-09-10T14:59:40.244Z,29.50
2018-09-10T15:02:07.428Z,28.90
2018-09-10T15:04:34.584Z,28.10
2018-09-10T15:07:01.771Z,27.70
2018-09-10T15:09:28.940Z,27.70
2018-09-10T15:11:56.177Z,27.90
2018-09-10T15:14:23.377Z,28.20
2018-09-10T15:16:50.482Z,28.40
2018-09-10T15:19:17.735Z,28.50
2018-09-10T15:21:45.050Z,28.50
2018-09-10T15:24:12.301Z,28.00
2018-09-10T15:26:39.493Z,27.80
2018-09-10T15:29:06.703Z,27.90
2018-09-10T15:31:34.131Z,27.90
2018-09-10T15:34:01.322Z,28.20
2018-09-10T15:36:28.528Z,28.50
2018-09-10T15:38:55.727Z,28.90
2018-09-10T15:41:22.944Z,29.20
2018-09-10T15:43:50.134Z,29.20
2018-09-10T15:46:17.341Z,29.20
2018-09-10T15:48:44.533Z,29.10
2018-09-10T15:51:11.725Z,28.80
2018-09-10T15:53:38.908Z,28.30
2018-09-10T15:56:06.112Z,28.10
2018-09-10T15:58:33.331Z,28.00
2018-09-10T16:01:00.508Z,27.90
2018-09-10T16:03:27.700Z,27.60
2018-09-10T16:05:54.892Z,27.40
2018-09-10T16:08:22.093Z,27.50
2018-09-10T16:10:49.460Z,27.30
2018-09-10T16:13:16.695Z,27.00
2018-09-10T16:15:43.941Z,26.80
2018-09-10T16:18:11.127Z,26.60
2018-09-10T16:20:38.329Z,26.40
2018-09-10T16:23:05.700Z,26.00
2018-09-10T16:25:32.903Z,25.70
2018-09-10T16:28:00.088Z,25.60
2018-09-10T16:30:27.278Z,25.40
2018-09-10T16:32:54.463Z,25.30
2018-09-10T16:35:21.660Z,25.20
2018-09-10T16:37:49.035Z,25.20
2018-09-10T16:40:16.258Z,25.10
2018-09-10T16:42:43.447Z,25.10
2018-09-10T16:45:10.828Z,25.10
2018-09-10T16:47:38.032Z,25.20
2018-09-10T16:50:05.251Z,25.20
2018-09-10T16:52:32.445Z,25.20
2018-09-10T16:54:59.669Z,25.10
2018-09-10T16:57:26.844Z,24.90
2018-09-10T16:59:54.059Z,24.80
2018-09-10T17:02:21.316Z,24.70
2018-09-10T17:04:48.514Z,24.60
2018-09-10T17:07:15.708Z,24.40
2018-09-10T17:09:42.932Z,24.40
2018-09-10T17:12:10.184Z,24.20
2018-09-10T17:14:37.338Z,24.10
2018-09-10T17:17:04.975Z,24.00
2018-09-10T17:19:32.551Z,23.90
2018-09-10T17:21:59.725Z,23.80
2018-09-10T17:24:26.911Z,23.60
2018-09-10T17:26:54.157Z,23.40
2018-09-10T17:29:21.344Z,23.30
2018-09-10T17:31:48.560Z,23.20
2018-09-10T17:34:15.812Z,23.10
2018-09-10T17:36:43.196Z,23.00
2018-09-10T17:39:10.392Z,22.90
2018-09-10T17:41:37.627Z,22.80
2018-09-10T17:44:04.827Z,22.90
2018-09-10T17:46:32.084Z,22.80
2018-09-10T17:48:59.364Z,22.70
2018-09-10T17:51:26.675Z,22.60
2018-09-10T17:53:54.105Z,22.50
2018-09-10T17:56:21.743Z,22.30
2018-09-10T17:58:49.099Z,22.20
2018-09-10T18:01:17.080Z,22.10
2018-09-10T18:03:44.424Z,21.90
2018-09-10T18:06:11.780Z,21.80
2018-09-10T18:08:39.541Z,21.70
2018-09-10T18:11:06.892Z,21.50
2018-09-10T18:13:34.249Z,21.30
2018-09-10T18:16:01.602Z,21.10
2018-09-10T18:18:28.971Z,21.00
2018-09-10T18:20:56.312Z,20.80
2018-09-10T18:23:23.670Z,20.70
2018-09-10T18:25:51.001Z,20.70
2018-09-10T18:28:18.372Z,20.60
2018-09-10T18:30:45.815Z,20.50
2018-09-10T18:33:13.683Z,20.60
2018-09-10T18:35:41.056Z,20.60
2018-09-10T18:38:08.405Z,20.60
2018-09-10T18:40:35.773Z,20.50
2018-09-10T18:43:02.984Z,20.50
2018-09-10T18:45:30.198Z,20.50
2018-09-10T18:47:58.700Z,20.50
2018-09-10T18:50:25.916Z,20.40
2018-09-10T18:52:53.109Z,20.30
2018-09-10T18:55:20.321Z,20.20
2018-09-10T18:57:47.524Z,20.10
2018-09-10T19:00:14.841Z,20.10
2018-09-10T19:02:42.037Z,20.10
2018-09-10T19:05:09.249Z,20.00
2018-09-10T19:07:36.448Z,20.00
2018-09-10T19:10:03.709Z,20.00
2018-09-10T19:12:30.919Z,20.00
2018-09-10T19:14:58.120Z,19.90
2018-09-10T19:17:25.547Z,19.80
2018-09-10T19:19:52.784Z,19.70
2018-09-10T19:22:20.090Z,19.70
2018-09-10T19:24:47.316Z,19.60
2018-09-10T19:27:14.552Z,19.60
2018-09-10T19:29:41.804Z,19.60
2018-09-10T19:32:09.009Z,19.50
2018-09-10T19:34:36.359Z,19.50
2018-09-10T19:37:03.585Z,19.50
2018-09-10T19:39:30.788Z,19.60
2018-09-10T19:41:57.997Z,19.60
2018-09-10T19:44:25.208Z,19.60
2018-09-10T19:46:52.424Z,19.60
2018-09-10T19:49:19.612Z,19.70
2018-09-10T19:51:46.794Z,19.60
2018-09-10T19:54:14.030Z,19.50
2018-09-10T19:56:41.215Z,19.50
2018-09-10T19:59:08.407Z,19.40
2018-09-10T20:01:35.603Z,19.30
2018-09-10T20:04:02.815Z,19.30
2018-09-10T20:06:30.028Z,19.30
2018-09-10T20:08:57.232Z,19.30
2018-09-10T20:11:24.423Z,19.30
2018-09-10T20:13:51.612Z,19.30
2018-09-10T20:16:18.845Z,19.30
2018-09-10T20:18:46.166Z,19.20
2018-09-10T20:21:13.665Z,19.20
2018-09-10T20:23:40.867Z,19.20
2018-09-10T20:26:08.129Z,19.20
2018-09-10T20:28:35.344Z,19.20
2018-09-10T20:31:03.024Z,19.20
2018-09-10T20:33:34.831Z,19.20
2018-09-10T20:36:02.033Z,19.20
2018-09-10T20:38:29.210Z,19.00
2018-09-10T20:40:56.380Z,19.00
2018-09-10T20:43:23.565Z,18.90
2018-09-10T20:45:50.775Z,18.90
2018-09-10T20:48:17.933Z,19.00
2018-09-10T20:50:45.116Z,19.00
2018-09-10T20:53:12.369Z,18.90
2018-09-10T20:55:39.544Z,18.90
2018-09-10T20:58:06.704Z,18.90
2018-09-10T21:00:33.900Z,18.80
2018-09-10T21:03:01.072Z,18.90
2018-09-10T21:05:28.244Z,18.90
2018-09-10T21:07:55.400Z,18.90
2018-09-10T21:10:22.591Z,19.00
2018-09-10T21:12:49.768Z,19.00
2018-09-10T21:15:17.064Z,19.10
2018-09-10T21:17:45.084Z,19.10
2018-09-10T21:20:12.256Z,19.00
2018-09-10T21:22:39.426Z,18.90
2018-09-10T21:25:06.624Z,18.80
2018-09-10T21:27:33.787Z,18.60
2018-09-10T21:30:00.952Z,18.60
2018-09-10T21:32:28.100Z,18.60
2018-09-10T21:34:55.260Z,18.70
2018-09-10T21:37:22.431Z,18.90
2018-09-10T21:39:49.615Z,18.90
2018-09-10T21:42:16.779Z,19.00
2018-09-10T21:44:44.032Z,19.10
2018-09-10T21:47:11.241Z,19.00
2018-09-10T21:49:38.378Z,19.00
2018-09-10T21:52:05.604Z,18.90
2018-09-10T21:54:32.781Z,18.90
2018-09-10T21:56:59.939Z,18.80
2018-09-10T21:59:27.103Z,18.70
2018-09-10T22:01:54.260Z,18.70
2018-09-10T22:04:21.440Z,18.60
2018-09-10T22:06:48.600Z,18.60
2018-09-10T22:09:15.775Z,18.50
2018-09-10T22:11:48.743Z,18.40
2018-09-10T22:14:15.920Z,18.30
2018-09-10T22:16:43.099Z,18.30
2018-09-10T22:19:10.269Z,18.20
2018-09-10T22:21:37.436Z,18.20
2018-09-10T22:24:04.811Z,18.20
2018-09-10T22:26:31.983Z,18.20
2018-09-10T22:28:59.139Z,18.30
2018-09-10T22:31:26.326Z,18.30
2018-09-10T22:33:53.472Z,18.30
2018-09-10T22:36:20.647Z,18.20
2018-09-10T22:38:47.820Z,18.20
2018-09-10T22:41:14.988Z,18.20
2018-09-10T22:43:42.164Z,18.30
2018-09-10T22:46:09.340Z,18.20
2018-09-10T22:48:36.508Z,18.20
2018-09-10T22:51:03.735Z,18.10
2018-09-10T22:53:30.881Z,18.10
2018-09-10T22:55:58.040Z,17.90
2018-09-10T22:58:25.192Z,17.90
2018-09-10T23:00:52.351Z,17.80
2018-09-10T23:03:19.503Z,17.70
2018-09-10T23:05:46.679Z,17.60
2018-09-10T23:08:13.835Z,17.50
2018-09-10T23:10:41.040Z,17.50
2018-09-10T23:13:08.220Z,17.50
2018-09-10T23:15:35.408Z,17.40
2018-09-10T23:18:02.579Z,17.40
2018-09-10T23:20:29.731Z,17.50
2018-09-10T23:22:56.900Z,17.40
2018-09-10T23:25:24.055Z,17.40
2018-09-10T23:27:51.218Z,17.40
2018-09-10T23:30:18.595Z,17.40
2018-09-10T23:32:45.769Z,17.30
2018-09-10T23:35:12.935Z,17.30
2018-09-10T23:37:40.145Z,17.20
2018-09-10T23:40:07.337Z,17.20
2018-09-10T23:42:34.543Z,17.20
2018-09-10T23:45:01.732Z,17.20
2018-09-10T23:47:28.929Z,17.10
2018-09-10T23:49:56.107Z,17.10
2018-09-10T23:52:23.320Z,17.10
2018-09-10T23:54:50.505Z,17.10
2018-09-10T23:57:17.705Z,17.10
2018-09-10T23:59:44.910Z,17.20
